Overlook, Kentucky
Current Conditions -  °F | °C
As of 4:35 AM on Friday 24 Oct 2014 (Local Time) from K5M9 Reporting Station
Scattered Clouds Scattered Clouds  
Wind Chill: 43°   Ceiling: Unl
Heat Index: 43°   Visibility: 10mi
Dew Point: 43°   Wind: 0mph
Humidity: 99%   Direction: NA
Pressure: 30.12"   Gusts: NA
Location:  37.0504°N, 88.0159°W
Report Text: K5M9 240935Z AUTO 00000KT 10SM SCT055 06/06 A3012 RMK AO2 T00610060
Loading
Personal Weather Stations






























Interactive Weather Map
Tropical Storm Tracking
New forecast layout! Learn more

10-Day Weather Forecast

Advertisements
Track Severe Weather on mobile